Ibstock, United Kingdom
Current Conditions -  °F | °C
As of 8:50 AM on Friday 31 Oct 2014 (Local Time) from EGNX Reporting Station
Few Clouds Few Clouds  
Wind Chill: 15°   Ceiling: Unl
Heat Index: 15°   Visibility: 5mi
Dew Point: 14°   Wind: 10mph
Humidity: 94%   Direction: 190°S
Pressure: 29.97"   Gusts: NA
Location:  52.69°N, 1.4°W
Report Text: EGNX 310850Z 19009KT 8000 FEW008 15/14 Q1015
Loading
Personal Weather Stations






























Interactive Weather Map
Tropical Storm Tracking
New forecast layout! Learn more

10-Day Weather Forecast

Advertisements
Track Severe Weather on mobile